17:40
Airports
History
Links
Donate
Help keep this website running!
PayPal
Bitcoin
This page is community maintained. The information is intended for PC simulator navigation or reference.
Always use approved charts for navigation.
ESNQ
Kiruna
Kiruna (ESNQ)
Norrbotten County, Sweden (981)
(C)
Lat/Lng:67° 49' 19.15" N / 20° 20' 12.35" E
67.821985 / 20.336763
Elevation:1508'ft / 460mMSL
ID / ICAO:ESNQ
Runways:1
Longest:03-21
Asphalt 2,495m / 8,184ft
Controlled:Yes
METAR17:20 GMT 2017-09-21
Altimeter: 30.39
Visibility: 6.2 statute miles
Wind: 6 knots (from 150°)
Temp: 5°c / 41°f
Humidity: 93.2%

METAR: ESNQ 211720Z 15006KT 9999 OVC007 05/04 Q1029

(Powered by phpweather)
Airport Radio Frequencies
Tower: 130.15
Nearby VORs <50NM
Nearby NDBs
Runway 03 / 21
Dimensions:2494.5 x 45.1m 8184' x 148'ft
Surface:Asphalt
Edge Lights:High intensity
Runway 03 [A]Runway 21 [B]
Heading:033°TH 213°TH
Lat:
Lng:
67° 48' 45.54"N
20° 19' 13.1"E
67° 49' 52.75"N
20° 21' 11.59"E
ALS:CalvertCalvert
User Notes and Comments
67° 49' 19.15" N / 20° 20' 12.35" E
Distance To
Airport ID:
Nearby Airports
(U) KALIXFORS 4.4 NM
ESUK SSW 207°
(C) Gallivare 49.3 NM
ESNG SSE 165°
(U) Pajala 82.4 NM
ESUP ESE 118°
(U) Narvik Framnes 87.0 NM
ENNK ( WX ) WNW 299°
(C) Enontekio 87.9 NM
EFET ENE 64°
(C) JOKKMOKK 91.7 NM
ESNJ S 183°
(U) Aavahelukka 96.5 NM
EFAA E 99°
VFR Chart
Flight Planning at SkyVector.com